LDOB weather

CLOSED Vukovar Borovo N Airport
Vukovar, Vukovar-Srijem County, Croatia

Public forecast

Using degrees Celsius for public forecast. Weather courtesy of forecast.io.

Closest aviation weather report (METAR) to Vukovar Borovo N Airport

Closest report is Osijek Airport, 7.9 nm (14.6 km) NW. Retrieved 2020/07/03 19:00 UTC (15 minutes ago):

LDOS 031900Z 28010KT 9999 BKN040 22/15 Q1015

Closest aviation forecast (TAF) to Vukovar Borovo N Airport

Closest forecast is Osijek Airport, 7.9 nm (14.6 km) NW. Retrieved 2020/07/03 18:27 UTC (48 minutes ago):

TAF LDOS 031725Z 0318/0418 30013KT CAVOK TX25/0414Z TN17/0403Z BECMG 0318/0320 30006KT PROB30 TEMPO 0408/0413 SHRA FEW035TCU SCT050